Time;durP1;ratioP1;P1;durP2;ratioP2;P2;SDS_P1;SDS_P2;PMS_P1;PMS_P2;Temp;Humidity;BMP_temperature;BMP_pressure;BME280_temperature;BME280_humidity;BME280_pressure;Samples;Min_cycle;Max_cycle;Signal;HPM_P1;HPM_P2
2023/06/20 04:08:39;;;;;;;14.43;10.73;;;;;;;17.65;100.00;100348.47;5500293;32;195278;-88
2023/06/20 04:11:43;;;;;;;17.37;10.75;;;;;;;17.65;100.00;100348.47;5489145;32;33569;-89
2023/06/20 04:14:48;;;;;;;17.50;10.80;;;;;;;17.28;100.00;100354.09;5487667;32;33935;-89
2023/06/20 04:17:51;;;;;;;13.00;9.95;;;;;;;17.44;100.00;100357.28;5487487;32;33581;-89
2023/06/20 04:20:54;;;;;;;13.98;10.73;;;;;;;17.62;100.00;100359.47;5487924;32;33695;-89
2023/06/20 04:24:00;;;;;;;12.05;9.70;;;;;;;17.85;100.00;100359.47;5524428;27;33520;-89
2023/06/20 04:27:03;;;;;;;12.18;10.30;;;;;;;18.05;100.00;100357.81;5509914;32;33303;-89
2023/06/20 04:30:07;;;;;;;11.02;9.80;;;;;;;18.39;100.00;100352.37;5525687;27;33420;-89
2023/06/20 04:33:10;;;;;;;10.25;9.00;;;;;;;18.74;100.00;100352.25;5579775;26;33624;-89
2023/06/20 04:36:13;;;;;;;11.02;9.52;;;;;;;19.14;100.00;100359.59;5556945;26;33625;-90
2023/06/20 04:39:16;;;;;;;13.02;9.40;;;;;;;19.52;100.00;100357.25;5525431;32;34894;-89
2023/06/20 04:42:20;;;;;;;11.00;9.30;;;;;;;19.89;100.00;100359.34;5525266;32;33481;-89
2023/06/20 04:45:25;;;;;;;11.90;9.43;;;;;;;19.94;100.00;100356.22;5525462;32;33757;-89
2023/06/20 04:48:35;;;;;;;13.30;9.50;;;;;;;20.12;100.00;100351.03;5506216;32;33698;-89
2023/06/20 04:51:40;;;;;;;13.55;9.77;;;;;;;20.25;100.00;100350.78;5505888;32;33748;-89
2023/06/20 04:54:43;;;;;;;19.23;9.52;;;;;;;20.55;100.00;100346.25;5507424;32;33746;-88
2023/06/20 04:57:47;;;;;;;10.98;9.25;;;;;;;20.34;100.00;100341.00;5524028;32;33729;-88
2023/06/20 05:00:52;;;;;;;11.12;9.77;;;;;;;20.50;100.00;100351.22;5505953;32;34317;-89
2023/06/20 05:03:54;;;;;;;11.30;9.45;;;;;;;20.55;100.00;100359.72;5509531;32;33400;-89
2023/06/20 05:07:00;;;;;;;11.30;9.20;;;;;;;20.66;100.00;100358.72;5519352;32;33525;-89
2023/06/20 05:10:04;;;;;;;10.32;9.00;;;;;;;20.83;100.00;100354.44;5519523;32;33456;-89
2023/06/20 05:13:07;;;;;;;9.50;8.50;;;;;;;20.93;98.45;100367.09;5524926;32;33750;-89
2023/06/20 05:16:10;;;;;;;11.15;9.18;;;;;;;21.07;95.87;100363.13;5524925;32;33869;-89
2023/06/20 05:19:12;;;;;;;9.57;8.68;;;;;;;21.37;93.75;100364.72;5514495;32;34568;-89
2023/06/20 05:22:15;;;;;;;11.15;9.15;;;;;;;22.05;87.48;100372.66;5509991;32;33390;-89
2023/06/20 05:25:18;;;;;;;9.20;8.10;;;;;;;23.28;77.91;100380.16;5495623;32;34777;-89
2023/06/20 05:28:21;;;;;;;9.43;8.27;;;;;;;24.75;71.72;100378.28;5511658;32;33977;-89
2023/06/20 05:31:24;;;;;;;12.10;8.20;;;;;;;25.80;65.04;100381.16;5512003;32;33634;-89
2023/06/20 05:34:27;;;;;;;10.20;7.85;;;;;;;27.33;60.16;100382.44;5504197;32;35113;-89
2023/06/20 05:37:31;;;;;;;11.63;8.30;;;;;;;28.08;54.86;100385.97;5514936;32;34682;-89
2023/06/20 05:40:33;;;;;;;9.90;8.30;;;;;;;29.14;51.50;100383.63;5512917;32;35152;-93
2023/06/20 05:43:36;;;;;;;9.25;8.32;;;;;;;30.29;47.63;100389.69;5508138;32;34729;-93
2023/06/20 05:46:39;;;;;;;9.15;8.10;;;;;;;30.08;47.88;100390.63;5511819;32;34924;-94
2023/06/20 05:49:42;;;;;;;11.07;8.00;;;;;;;30.24;47.81;100387.56;5499060;32;34430;-90
2023/06/20 05:52:44;;;;;;;10.00;8.38;;;;;;;29.72;48.15;100382.50;5492538;32;33532;-91
2023/06/20 05:55:50;;;;;;;11.43;8.50;;;;;;;28.86;50.84;100380.91;5503042;32;34678;-91
2023/06/20 05:58:53;;;;;;;10.80;8.35;;;;;;;29.80;48.64;100386.09;5500551;32;33624;-91
2023/06/20 06:01:57;;;;;;;11.57;8.18;;;;;;;30.46;47.07;100392.03;5517083;32;34416;-90
2023/06/20 06:05:00;;;;;;;10.48;8.73;;;;;;;30.62;46.34;100399.00;5523016;32;34320;-90
2023/06/20 06:08:03;;;;;;;10.07;8.93;;;;;;;31.23;44.56;100388.91;5504649;32;33733;-90
2023/06/20 06:11:07;;;;;;;8.95;8.02;;;;;;;31.77;43.46;100390.66;5491541;32;34500;-88
2023/06/20 06:14:10;;;;;;;9.23;8.18;;;;;;;32.22;42.30;100398.06;5502330;32;34178;-88
2023/06/20 06:17:13;;;;;;;9.38;7.90;;;;;;;30.48;46.08;100401.69;5491602;32;34240;-87
2023/06/20 06:20:18;;;;;;;9.25;8.23;;;;;;;30.49;46.13;100399.81;5509507;32;33706;-88
2023/06/20 06:23:21;;;;;;;8.55;7.75;;;;;;;32.94;40.19;100414.25;5495127;32;33677;-87
2023/06/20 06:26:24;;;;;;;9.65;8.07;;;;;;;33.54;37.60;100405.69;5497524;32;33617;-87
2023/06/20 06:29:27;;;;;;;11.07;7.97;;;;;;;31.79;41.89;100402.25;5496516;32;34383;-87
2023/06/20 06:32:36;;;;;;;12.55;7.65;;;;;;;32.95;39.20;100412.34;5495165;32;34440;-87
2023/06/20 06:35:40;;;;;;;8.52;7.68;;;;;;;32.92;38.81;100415.53;5506466;32;35488;-87
2023/06/20 06:38:48;;;;;;;11.35;8.20;;;;;;;30.22;45.47;100406.06;5491736;32;34042;-87
2023/06/20 06:41:51;;;;;;;11.68;8.82;;;;;;;29.26;47.88;100407.66;5495399;32;33796;-87
2023/06/20 06:44:57;;;;;;;10.35;8.88;;;;;;;28.54;50.92;100410.37;5495537;32;33260;-85
2023/06/20 06:48:00;;;;;;;12.65;9.10;;;;;;;27.68;53.35;100410.00;5500496;32;34009;-87
2023/06/20 06:51:03;;;;;;;9.52;8.05;;;;;;;28.05;53.52;100402.69;5492085;32;34339;-87
2023/06/20 06:54:06;;;;;;;9.88;8.93;;;;;;;27.94;54.88;100398.59;5497787;32;33470;-88
2023/06/20 06:57:09;;;;;;;10.13;8.77;;;;;;;27.13;58.33;100402.03;5498895;32;35063;-87
2023/06/20 07:00:14;;;;;;;13.30;9.77;;;;;;;27.34;58.14;100404.03;5497430;32;33667;-88
2023/06/20 07:03:17;;;;;;;13.82;9.18;;;;;;;27.38;55.66;100410.81;5502924;32;33463;-88
2023/06/20 07:06:20;;;;;;;9.93;8.93;;;;;;;26.96;59.50;100412.25;5503452;32;33651;-89
2023/06/20 07:09:23;;;;;;;15.07;9.13;;;;;;;27.80;56.05;100403.03;5503792;32;34194;-89
2023/06/20 07:12:26;;;;;;;11.95;9.70;;;;;;;27.29;56.40;100415.50;5492819;32;33360;-86
2023/06/20 07:15:28;;;;;;;11.73;9.32;;;;;;;27.22;58.59;100420.00;5495129;32;34426;-86
2023/06/20 07:18:32;;;;;;;11.05;9.48;;;;;;;27.14;60.16;100414.59;5501193;32;34630;-86
2023/06/20 07:21:34;;;;;;;13.38;9.93;;;;;;;26.96;62.07;100418.53;5506473;32;34239;-88
2023/06/20 07:24:37;;;;;;;12.07;9.68;;;;;;;26.77;61.76;100422.56;5491893;32;34472;-88
2023/06/20 07:27:40;;;;;;;10.52;9.43;;;;;;;27.27;60.73;100419.44;5490832;32;34710;-88
2023/06/20 07:30:43;;;;;;;11.20;9.75;;;;;;;27.00;62.74;100419.84;5490018;32;33554;-88
2023/06/20 07:33:47;;;;;;;14.70;10.40;;;;;;;26.94;61.39;100423.31;5492106;32;34710;-89
2023/06/20 07:36:50;;;;;;;15.38;10.25;;;;;;;27.04;61.08;100423.03;5496843;32;33760;-89
2023/06/20 07:39:52;;;;;;;14.73;9.98;;;;;;;26.77;63.07;100428.00;5513937;32;34559;-91
2023/06/20 07:42:55;;;;;;;14.55;10.68;;;;;;;27.49;59.55;100431.28;5508824;32;34401;-91
2023/06/20 10:19:59;;;;;;;8.40;7.60;;;;;;;37.04;28.27;100405.91;5400878;32;20118;-89
2023/06/20 10:23:08;;;;;;;9.07;8.18;;;;;;;37.87;26.43;100402.34;5399747;33;33811;-89
2023/06/20 10:26:12;;;;;;;7.87;7.15;;;;;;;38.38;27.36;100405.94;5403671;32;33731;-90
2023/06/20 10:29:15;;;;;;;9.60;7.70;;;;;;;39.00;25.15;100397.38;5411141;32;33560;-90
2023/06/20 10:32:20;;;;;;;8.32;7.55;;;;;;;38.86;25.29;100402.50;5406401;32;34750;-90
2023/06/20 10:35:24;;;;;;;9.30;7.65;;;;;;;38.66;24.52;100413.16;5459948;27;35160;-91
2023/06/20 11:40:12;;;;;;;10.27;8.00;;;;;;;33.78;32.32;100356.34;5321307;31;20121;-92
2023/06/20 11:43:21;;;;;;;9.75;8.13;;;;;;;33.89;31.67;100350.06;5372288;33;34497;-90
2023/06/20 11:46:24;;;;;;;10.63;7.70;;;;;;;34.35;31.13;100347.72;5373730;33;33862;-89
2023/06/20 11:49:33;;;;;;;8.80;7.93;;;;;;;33.58;30.93;100341.75;5430275;27;34100;-90
2023/06/20 11:52:40;;;;;;;8.52;7.65;;;;;;;33.36;32.32;100344.12;5382584;33;33781;-89
2023/06/20 12:22:01;;;;;;;8.10;7.30;;;;;;;33.65;30.14;100329.84;4795714;31;20113;-89
2023/06/20 12:25:05;;;;;;;7.18;6.47;;;;;;;33.08;30.37;100323.47;5379267;33;33811;-89
2023/06/20 12:28:09;;;;;;;7.85;7.05;;;;;;;32.49;32.60;100329.28;5394599;27;33966;-89
2023/06/20 12:31:14;;;;;;;8.15;7.35;;;;;;;32.47;32.57;100314.97;5430455;27;33737;-88
2023/06/20 12:34:18;;;;;;;9.07;7.40;;;;;;;32.38;32.64;100311.63;5398155;27;33299;-89
2023/06/20 12:37:25;;;;;;;8.25;7.22;;;;;;;32.29;32.76;100308.31;5442118;27;32133;-89
2023/06/20 12:40:29;;;;;;;7.85;7.05;;;;;;;32.26;31.77;100309.59;5429252;27;34199;-88
2023/06/20 12:43:32;;;;;;;11.02;7.32;;;;;;;32.50;30.99;100312.63;5382261;33;33562;-88
2023/06/20 12:46:35;;;;;;;8.18;7.15;;;;;;;32.30;32.43;100306.41;5429243;27;35129;-89
2023/06/20 12:49:38;;;;;;;12.25;7.65;;;;;;;32.68;31.51;100308.25;5417548;27;35222;-89
2023/06/20 12:52:41;;;;;;;9.65;7.55;;;;;;;32.93;30.24;100302.69;5387738;32;34560;-90
2023/06/20 12:55:47;;;;;;;10.60;7.30;;;;;;;32.50;31.35;100301.63;5383512;32;34898;-90
2023/06/20 12:58:50;;;;;;;18.58;8.23;;;;;;;32.57;32.30;100298.81;5384607;33;34319;-90
2023/06/20 13:01:53;;;;;;;13.98;7.60;;;;;;;32.54;32.68;100294.59;5382449;33;33506;-90
2023/06/20 13:04:55;;;;;;;8.63;7.82;;;;;;;32.51;32.90;100289.59;5384197;33;34490;-90
2023/06/20 13:07:59;;;;;;;8.23;7.03;;;;;;;31.94;33.19;100289.56;5397539;27;33576;-89
2023/06/20 13:11:02;;;;;;;8.63;7.03;;;;;;;32.43;32.38;100289.03;5381712;33;33776;-89
2023/06/20 13:14:05;;;;;;;7.93;7.15;;;;;;;32.49;32.23;100293.63;5388791;33;34436;-88
2023/06/20 13:17:08;;;;;;;8.45;7.70;;;;;;;31.97;33.08;100286.38;5383158;33;34542;-90
2023/06/20 13:20:11;;;;;;;10.27;7.22;;;;;;;31.76;33.41;100285.63;5387884;33;33944;-89
2023/06/20 13:23:14;;;;;;;8.50;7.15;;;;;;;32.04;33.43;100283.59;5379039;33;33969;-89
2023/06/20 13:26:17;;;;;;;8.30;7.50;;;;;;;32.15;32.57;100280.13;5376001;33;33774;-89
2023/06/20 13:29:20;;;;;;;7.90;7.20;;;;;;;32.04;32.33;100286.31;5401020;27;33856;-89
2023/06/20 13:32:23;;;;;;;9.10;7.12;;;;;;;31.92;32.35;100278.81;5362887;33;33993;-88
2023/06/20 13:35:26;;;;;;;8.00;6.87;;;;;;;31.89;32.78;100282.00;5365866;33;34981;-89
2023/06/20 13:38:29;;;;;;;11.15;6.82;;;;;;;31.99;32.83;100273.28;5363352;33;34531;-88
2023/06/20 13:41:32;;;;;;;8.70;6.95;;;;;;;32.18;32.60;100276.09;5364648;33;34194;-88
2023/06/20 13:44:35;;;;;;;10.23;7.62;;;;;;;32.21;32.74;100278.38;5364879;33;34402;-89
2023/06/20 13:47:38;;;;;;;9.80;7.70;;;;;;;31.95;32.83;100278.38;5408574;27;33943;-88
2023/06/20 13:50:42;;;;;;;7.10;6.50;;;;;;;31.84;33.18;100281.81;5363958;33;33997;-88
